createdAt,value
2022-08-30T00:03:10.981Z,16.10
2022-08-30T00:09:12.944Z,16.20
2022-08-30T00:15:15.664Z,16.40
2022-08-30T00:21:17.510Z,16.60
2022-08-30T00:27:19.319Z,16.60
2022-08-30T00:33:21.704Z,16.70
2022-08-30T00:39:23.414Z,16.50
2022-08-30T00:45:30.771Z,16.40
2022-08-30T00:51:33.533Z,16.30
2022-08-30T00:57:35.996Z,16.30
2022-08-30T01:03:39.334Z,16.30
2022-08-30T01:09:41.064Z,16.30
2022-08-30T01:15:45.056Z,16.30
2022-08-30T01:21:52.401Z,16.10
2022-08-30T01:27:59.010Z,16.10
2022-08-30T01:34:02.147Z,16.20
2022-08-30T01:40:06.047Z,16.20
2022-08-30T01:46:11.064Z,16.10
2022-08-30T01:52:13.291Z,16.10
2022-08-30T01:58:15.013Z,16.10
2022-08-30T02:04:16.999Z,16.00
2022-08-30T02:10:18.744Z,15.90
2022-08-30T02:16:22.995Z,15.70
2022-08-30T02:22:24.981Z,15.70
2022-08-30T02:28:27.193Z,15.50
2022-08-30T02:34:28.985Z,15.60
2022-08-30T02:40:31.139Z,15.60
2022-08-30T02:46:34.722Z,15.60
2022-08-30T02:52:37.617Z,15.50
2022-08-30T02:58:42.383Z,15.50
2022-08-30T03:04:46.963Z,15.40
2022-08-30T03:10:48.995Z,15.40
2022-08-30T03:16:50.856Z,15.40
2022-08-30T03:22:52.691Z,15.40
2022-08-30T03:28:54.427Z,15.40
2022-08-30T03:34:56.214Z,15.20
2022-08-30T03:40:58.037Z,15.30
2022-08-30T03:46:59.990Z,15.30
2022-08-30T03:53:02.030Z,15.20
2022-08-30T03:59:04.052Z,15.10
2022-08-30T04:05:06.649Z,15.10
2022-08-30T04:11:08.433Z,15.00
2022-08-30T04:17:10.288Z,15.00
2022-08-30T04:23:12.555Z,14.90
2022-08-30T04:29:16.874Z,14.70
2022-08-30T04:35:18.596Z,14.70
2022-08-30T04:41:24.513Z,14.70
2022-08-30T04:47:26.528Z,14.50
2022-08-30T04:53:28.548Z,14.50
2022-08-30T04:59:30.274Z,14.60
2022-08-30T05:05:41.751Z,14.60
2022-08-30T05:11:44.086Z,14.60
2022-08-30T05:17:45.825Z,14.60
2022-08-30T05:23:49.752Z,14.60
2022-08-30T05:29:51.435Z,14.60
2022-08-30T05:35:53.152Z,14.50
2022-08-30T05:41:58.755Z,14.50
2022-08-30T05:48:01.693Z,14.50
2022-08-30T05:54:03.920Z,14.60
2022-08-30T06:00:14.935Z,14.60
2022-08-30T06:06:16.705Z,14.70
2022-08-30T06:12:18.450Z,14.70
2022-08-30T06:18:21.639Z,14.80
2022-08-30T06:24:53.710Z,14.90
2022-08-30T06:30:52.179Z,14.80
2022-08-30T06:36:54.326Z,14.80
2022-08-30T06:42:56.403Z,15.00
2022-08-30T06:48:59.240Z,14.90
2022-08-30T06:55:00.942Z,15.00
2022-08-30T07:01:02.925Z,15.10
2022-08-30T07:07:04.964Z,15.40
2022-08-30T07:13:07.617Z,15.50
2022-08-30T07:19:09.493Z,15.60
2022-08-30T07:25:22.321Z,15.60
2022-08-30T07:31:25.149Z,15.60
2022-08-30T07:37:26.922Z,15.80
2022-08-30T07:43:31.902Z,15.90
2022-08-30T07:49:33.609Z,16.30
2022-08-30T07:55:35.317Z,16.40
2022-08-30T08:01:37.155Z,16.30
2022-08-30T08:07:39.245Z,16.50
2022-08-30T08:13:53.387Z,16.50
2022-08-30T08:19:56.042Z,16.80
2022-08-30T08:25:57.883Z,16.90
2022-08-30T08:32:00.229Z,16.80
2022-08-30T08:38:01.993Z,16.90
2022-08-30T08:44:37.346Z,17.00
2022-08-30T08:51:02.469Z,16.90
2022-08-30T08:57:04.894Z,17.10
2022-08-30T09:03:10.151Z,17.30
2022-08-30T09:09:13.042Z,17.50
2022-08-30T09:15:24.665Z,17.60
2022-08-30T09:21:28.409Z,17.70
2022-08-30T09:27:37.048Z,17.90
2022-08-30T09:33:38.817Z,18.10
2022-08-30T09:39:45.075Z,18.20
2022-08-30T09:46:07.387Z,18.40
2022-08-30T09:52:35.448Z,18.60
2022-08-30T09:58:55.233Z,18.90
2022-08-30T10:05:05.515Z,18.90
2022-08-30T10:11:10.965Z,19.10
2022-08-30T10:17:27.597Z,19.30
2022-08-30T10:23:35.030Z,19.40
2022-08-30T10:30:03.873Z,19.50
2022-08-30T10:36:10.979Z,19.70
2022-08-30T10:42:23.111Z,19.90
2022-08-30T10:48:33.545Z,20.00
2022-08-30T10:54:42.952Z,20.00
2022-08-30T11:01:07.635Z,20.30
2022-08-30T11:07:32.822Z,20.40
2022-08-30T11:13:37.895Z,20.80
2022-08-30T11:19:41.561Z,21.00
2022-08-30T11:26:01.776Z,20.80
2022-08-30T11:32:13.869Z,20.90
2022-08-30T11:38:40.457Z,20.70
2022-08-30T11:44:42.185Z,21.20
2022-08-30T11:51:03.141Z,21.20
2022-08-30T11:57:26.325Z,21.30
2022-08-30T12:03:33.488Z,21.60
2022-08-30T12:09:37.183Z,21.50
2022-08-30T12:15:59.017Z,21.80
2022-08-30T12:22:07.122Z,21.80
2022-08-30T12:28:16.347Z,21.80
2022-08-30T12:34:26.316Z,22.10
2022-08-30T12:40:31.603Z,22.10
2022-08-30T12:46:33.874Z,22.30
2022-08-30T12:52:47.449Z,22.30
2022-08-30T12:58:53.137Z,22.30
2022-08-30T13:04:56.854Z,22.70
2022-08-30T13:11:04.445Z,22.70
2022-08-30T13:17:18.557Z,23.00
2022-08-30T13:23:24.496Z,22.50
2022-08-30T13:29:38.511Z,22.50
2022-08-30T13:35:40.361Z,22.50
2022-08-30T13:41:43.229Z,22.80
2022-08-30T13:47:46.845Z,22.90
2022-08-30T13:53:52.852Z,22.70
2022-08-30T13:59:55.765Z,23.00
2022-08-30T14:06:29.308Z,22.90
2022-08-30T14:12:52.721Z,22.80
2022-08-30T14:18:43.269Z,22.60
2022-08-30T14:24:45.210Z,22.50
2022-08-30T14:30:47.663Z,22.70
2022-08-30T14:36:52.404Z,22.90
2022-08-30T14:42:54.413Z,22.60
2022-08-30T14:48:56.168Z,22.60
2022-08-30T14:55:08.546Z,22.90
2022-08-30T15:01:12.690Z,23.30
2022-08-30T15:07:16.612Z,23.30
2022-08-30T15:13:19.048Z,23.60
2022-08-30T15:19:21.484Z,23.60
2022-08-30T15:25:23.373Z,23.50
2022-08-30T15:31:28.584Z,23.40
2022-08-30T15:37:30.385Z,23.00
2022-08-30T15:43:33.846Z,23.10
2022-08-30T15:49:36.438Z,23.30
2022-08-30T15:55:38.517Z,23.10
2022-08-30T16:01:40.338Z,23.00
2022-08-30T16:07:42.266Z,23.10
2022-08-30T16:13:49.518Z,23.20
2022-08-30T16:19:55.728Z,22.90
2022-08-30T16:26:02.336Z,22.60
2022-08-30T16:32:06.766Z,22.50
2022-08-30T16:38:08.683Z,22.50
2022-08-30T16:44:11.521Z,22.70
2022-08-30T16:50:18.762Z,22.50
2022-08-30T16:56:25.597Z,22.30
2022-08-30T17:02:28.899Z,22.00
2022-08-30T17:08:31.009Z,21.90
2022-08-30T17:14:33.348Z,21.70
2022-08-30T17:20:35.512Z,21.50
2022-08-30T17:26:40.037Z,21.30
2022-08-30T17:32:42.124Z,21.20
2022-08-30T17:38:44.785Z,21.10
2022-08-30T17:44:47.256Z,21.10
2022-08-30T17:50:56.180Z,20.80
2022-08-30T17:56:59.457Z,20.60
2022-08-30T18:03:01.500Z,20.50
2022-08-30T18:09:06.685Z,20.20
2022-08-30T18:15:12.605Z,20.10
2022-08-30T18:21:19.419Z,19.90
2022-08-30T18:27:24.176Z,19.80
2022-08-30T18:33:27.381Z,19.70
2022-08-30T18:39:34.174Z,19.60
2022-08-30T18:45:42.348Z,19.50
2022-08-30T18:51:44.212Z,19.40
2022-08-30T18:57:45.970Z,19.40
2022-08-30T19:03:47.849Z,19.30
2022-08-30T19:09:49.726Z,19.20
2022-08-30T19:15:53.508Z,19.20
2022-08-30T19:21:55.920Z,19.10
2022-08-30T19:27:57.694Z,19.10
2022-08-30T19:33:59.774Z,19.10
2022-08-30T19:40:05.087Z,19.10
2022-08-30T19:46:07.758Z,18.90
2022-08-30T19:52:10.194Z,18.90
2022-08-30T19:58:12.214Z,18.80
2022-08-30T20:04:14.474Z,18.70
2022-08-30T20:10:16.659Z,18.60
2022-08-30T20:16:19.490Z,18.60
2022-08-30T20:22:21.396Z,18.60
2022-08-30T20:28:25.152Z,18.60
2022-08-30T20:34:27.690Z,18.60
2022-08-30T20:40:30.305Z,18.50
2022-08-30T20:46:34.314Z,18.30
2022-08-30T20:52:36.278Z,18.20
2022-08-30T20:58:38.023Z,18.10
2022-08-30T21:04:39.853Z,18.10
2022-08-30T21:10:41.752Z,18.00
2022-08-30T21:16:43.666Z,17.90
2022-08-30T21:22:45.516Z,17.70
2022-08-30T21:28:49.339Z,17.70
2022-08-30T21:35:09.637Z,17.70
2022-08-30T21:41:12.835Z,17.60
2022-08-30T21:47:14.762Z,17.60
2022-08-30T21:53:25.119Z,17.50
2022-08-30T21:59:28.455Z,17.50
2022-08-30T22:05:30.405Z,17.30
2022-08-30T22:11:35.128Z,17.20
2022-08-30T22:17:36.997Z,17.10
2022-08-30T22:23:40.538Z,17.00
2022-08-30T22:29:42.557Z,17.00
2022-08-30T22:35:45.513Z,16.90
2022-08-30T22:41:47.370Z,16.90
2022-08-30T22:47:49.260Z,16.80
2022-08-30T22:53:51.167Z,16.80
2022-08-30T22:59:53.206Z,16.90
2022-08-30T23:05:55.112Z,16.80
2022-08-30T23:11:57.328Z,16.80
2022-08-30T23:17:59.233Z,16.70
2022-08-30T23:24:19.868Z,16.60
2022-08-30T23:30:40.546Z,16.50
2022-08-30T23:37:01.470Z,16.40
2022-08-30T23:43:22.227Z,16.40
2022-08-30T23:49:42.644Z,16.30
2022-08-30T23:56:02.987Z,16.20
